Time;durP1;ratioP1;P1;durP2;ratioP2;P2;SDS_P1;SDS_P2;PMS_P1;PMS_P2;Temp;Humidity;BMP_temperature;BMP_pressure;BME280_temperature;BME280_humidity;BME280_pressure;Samples;Min_cycle;Max_cycle;Signal;HPM_P1;HPM_P2
2022/10/31 00:01:09;;;;;;;32.75;21.10;;;;;;;;;;5037666;28;20078;-66
2022/10/31 00:03:35;;;;;;;33.00;21.38;;;;;;;;;;5036836;28;20025;-65
2022/10/31 00:06:01;;;;;;;42.20;23.73;;;;;;;;;;5056521;28;20506;-65
2022/10/31 00:08:27;;;;;;;37.33;22.92;;;;;;;;;;5037529;28;20052;-64
2022/10/31 00:10:53;;;;;;;34.10;22.70;;;;;;;;;;5055238;28;20077;-66
2022/10/31 00:13:19;;;;;;;30.50;22.20;;;;;;;;;;5055624;28;20464;-66
2022/10/31 00:15:45;;;;;;;39.28;24.63;;;;;;;;;;5055737;28;20029;-66
2022/10/31 00:18:11;;;;;;;38.92;24.58;;;;;;;;;;5054571;28;20028;-66
2022/10/31 00:20:38;;;;;;;39.28;25.05;;;;;;;;;;5036964;28;20021;-67
2022/10/31 00:23:04;;;;;;;37.92;25.00;;;;;;;;;;5037076;28;20029;-66
2022/10/31 00:25:35;;;;;;;38.00;25.27;;;;;;;;;;5054730;28;20392;-64
2022/10/31 00:28:01;;;;;;;36.95;23.85;;;;;;;;;;5054479;28;20074;-64
2022/10/31 00:30:27;;;;;;;38.30;24.42;;;;;;;;;;5054612;28;20053;-65
2022/10/31 00:32:53;;;;;;;41.67;26.13;;;;;;;;;;5054307;28;20029;-65
2022/10/31 00:35:19;;;;;;;35.42;23.70;;;;;;;;;;5052653;28;20025;-66
2022/10/31 00:37:45;;;;;;;35.80;24.13;;;;;;;;;;5054330;28;20382;-65
2022/10/31 00:40:11;;;;;;;35.33;24.90;;;;;;;;;;5054669;28;20112;-65
2022/10/31 00:42:37;;;;;;;42.40;25.27;;;;;;;;;;5054337;28;20474;-65
2022/10/31 00:45:03;;;;;;;39.20;25.10;;;;;;;;;;5035820;28;20108;-65
2022/10/31 00:47:29;;;;;;;35.97;24.75;;;;;;;;;;5051672;28;20039;-64
2022/10/31 00:49:55;;;;;;;39.47;24.35;;;;;;;;;;5074786;28;20025;-65
2022/10/31 00:52:21;;;;;;;40.88;25.13;;;;;;;;;;5056577;28;20166;-66
2022/10/31 00:54:47;;;;;;;35.83;24.08;;;;;;;;;;5073432;28;20025;-65
2022/10/31 00:57:13;;;;;;;38.85;24.58;;;;;;;;;;5074300;28;20048;-65
2022/10/31 00:59:39;;;;;;;34.30;25.02;;;;;;;;;;5075742;28;20361;-66
2022/10/31 01:02:05;;;;;;;41.08;26.27;;;;;;;;;;5073618;28;20028;-66
2022/10/31 01:04:31;;;;;;;37.15;24.88;;;;;;;;;;5073108;28;20016;-66
2022/10/31 01:06:57;;;;;;;42.40;26.15;;;;;;;;;;5073551;28;20070;-66
2022/10/31 01:09:23;;;;;;;41.40;26.00;;;;;;;;;;5055895;28;20029;-65
2022/10/31 01:11:49;;;;;;;40.25;26.45;;;;;;;;;;5073587;28;20017;-65
2022/10/31 01:14:15;;;;;;;36.78;26.50;;;;;;;;;;5055018;28;20028;-65
2022/10/31 01:16:41;;;;;;;36.45;25.92;;;;;;;;;;5067356;28;20112;-65
2022/10/31 01:19:07;;;;;;;45.25;25.75;;;;;;;;;;5054761;28;20017;-65
2022/10/31 01:21:33;;;;;;;36.22;26.38;;;;;;;;;;5055629;28;20472;-65
2022/10/31 01:23:59;;;;;;;45.65;26.50;;;;;;;;;;5072572;28;20024;-65
2022/10/31 01:26:26;;;;;;;42.60;26.15;;;;;;;;;;5073003;28;20053;-65
2022/10/31 01:28:54;;;;;;;42.40;27.35;;;;;;;;;;5073316;28;20020;-66
2022/10/31 01:31:20;;;;;;;40.70;26.80;;;;;;;;;;5072974;28;20024;-66
2022/10/31 01:33:46;;;;;;;38.35;26.63;;;;;;;;;;5054559;28;20442;-66
2022/10/31 01:36:12;;;;;;;43.33;28.25;;;;;;;;;;5073176;28;20020;-66
2022/10/31 01:38:38;;;;;;;42.40;28.02;;;;;;;;;;5073226;28;20070;-67
2022/10/31 01:41:05;;;;;;;52.38;27.80;;;;;;;;;;5073245;28;20492;-65
2022/10/31 01:43:44;;;;;;;42.97;27.55;;;;;;;;;;5071947;28;20064;-65
2022/10/31 01:46:10;;;;;;;40.55;26.90;;;;;;;;;;5072821;28;20024;-66
2022/10/31 01:48:37;;;;;;;40.78;27.85;;;;;;;;;;5055040;28;20024;-66
2022/10/31 01:51:04;;;;;;;40.70;28.90;;;;;;;;;;5052838;28;20546;-65
2022/10/31 01:53:31;;;;;;;37.40;25.80;;;;;;;;;;5034474;28;20503;-65
2022/10/31 01:55:57;;;;;;;42.13;28.40;;;;;;;;;;5035130;28;20392;-65
2022/10/31 01:58:25;;;;;;;42.47;28.48;;;;;;;;;;5034972;28;20119;-66
2022/10/31 02:00:54;;;;;;;40.78;27.42;;;;;;;;;;5053050;28;20040;-65
2022/10/31 02:03:21;;;;;;;44.95;28.70;;;;;;;;;;5051925;28;20437;-65
2022/10/31 02:05:47;;;;;;;47.85;27.67;;;;;;;;;;5052498;28;20029;-65
2022/10/31 02:08:16;;;;;;;39.38;27.08;;;;;;;;;;5034727;28;20036;-65
2022/10/31 02:10:43;;;;;;;42.03;29.95;;;;;;;;;;5052479;28;20104;-66
2022/10/31 02:13:09;;;;;;;41.15;28.35;;;;;;;;;;5033798;28;20082;-65
2022/10/31 02:15:36;;;;;;;40.13;27.30;;;;;;;;;;5052541;28;20090;-64
2022/10/31 02:18:03;;;;;;;40.67;27.70;;;;;;;;;;5070799;28;20032;-65
2022/10/31 02:20:38;;;;;;;46.28;29.73;;;;;;;;;;5054454;28;20031;-65
2022/10/31 02:23:16;;;;;;;47.83;30.42;;;;;;;;;;5071983;28;20021;-64
2022/10/31 02:25:52;;;;;;;48.53;31.90;;;;;;;;;;5072609;28;20028;-65
2022/10/31 02:28:18;;;;;;;41.30;30.40;;;;;;;;;;5072668;28;20032;-64
2022/10/31 02:30:53;;;;;;;45.22;31.15;;;;;;;;;;5054502;28;20094;-65
2022/10/31 02:33:35;;;;;;;44.65;29.98;;;;;;;;;;5071702;28;20060;-66
2022/10/31 02:36:05;;;;;;;44.65;30.80;;;;;;;;;;5072458;28;20060;-65
2022/10/31 02:38:50;;;;;;;41.45;29.48;;;;;;;;;;5072245;28;20105;-65
2022/10/31 02:41:20;;;;;;;49.42;31.13;;;;;;;;;;5072485;28;20074;-64
2022/10/31 02:43:46;;;;;;;48.05;30.35;;;;;;;;;;5053606;28;20501;-65
2022/10/31 02:46:35;;;;;;;51.03;31.13;;;;;;;;;;5070859;28;20036;-66
2022/10/31 02:49:06;;;;;;;44.75;29.95;;;;;;;;;;5034524;28;20036;-65
2022/10/31 02:51:32;;;;;;;50.05;31.40;;;;;;;;;;5072308;28;20031;-66
2022/10/31 02:53:58;;;;;;;49.72;32.47;;;;;;;;;;5071234;28;20027;-66
2022/10/31 02:56:24;;;;;;;45.63;31.00;;;;;;;;;;5054112;28;20447;-65
2022/10/31 02:59:01;;;;;;;41.08;30.20;;;;;;;;;;5055705;28;20128;-67
2022/10/31 03:01:27;;;;;;;43.88;31.55;;;;;;;;;;5058356;28;20511;-66
2022/10/31 03:03:57;;;;;;;49.78;30.58;;;;;;;;;;5075501;28;20024;-65
2022/10/31 03:06:40;;;;;;;50.03;32.03;;;;;;;;;;5076003;28;20112;-65
2022/10/31 03:09:26;;;;;;;48.50;30.45;;;;;;;;;;5075124;28;20021;-65
2022/10/31 03:11:52;;;;;;;51.67;31.30;;;;;;;;;;5075918;28;20023;-65
2022/10/31 03:14:25;;;;;;;52.85;32.53;;;;;;;;;;5074414;28;20380;-65
2022/10/31 03:16:52;;;;;;;47.53;31.98;;;;;;;;;;5018278;28;20026;-65
2022/10/31 03:19:26;;;;;;;49.80;31.30;;;;;;;;;;5018499;28;20054;-65
2022/10/31 03:21:58;;;;;;;45.33;32.97;;;;;;;;;;5036060;28;20028;-65
2022/10/31 03:24:27;;;;;;;51.25;33.80;;;;;;;;;;5017220;28;20049;-65
2022/10/31 03:26:55;;;;;;;43.13;30.88;;;;;;;;;;5018218;28;20029;-65
2022/10/31 03:29:22;;;;;;;51.60;32.20;;;;;;;;;;5035726;28;20112;-65
2022/10/31 03:31:59;;;;;;;51.65;32.45;;;;;;;;;;5035338;28;20030;-65
2022/10/31 03:34:25;;;;;;;50.72;32.95;;;;;;;;;;5034796;28;20032;-66
2022/10/31 03:36:54;;;;;;;52.58;33.40;;;;;;;;;;5035358;28;20025;-65
2022/10/31 03:39:20;;;;;;;;;;;;;;;;;;5049514;28;20029;-66
2022/10/31 03:41:48;;;;;;;54.65;32.70;;;;;;;;;;5037792;28;19999;-65
2022/10/31 03:44:14;;;;;;;;;;;;;;;;;;5055152;28;20115;-65
2022/10/31 03:46:41;;;;;;;46.17;32.03;;;;;;;;;;5055483;28;19946;-65
2022/10/31 03:49:07;;;;;;;47.97;32.45;;;;;;;;;;5037686;28;20025;-65
2022/10/31 03:51:39;;;;;;;48.53;31.55;;;;;;;;;;5055558;28;20489;-63
2022/10/31 03:54:23;;;;;;;53.03;34.25;;;;;;;;;;5069983;28;20035;-65
2022/10/31 03:57:15;;;;;;;63.03;36.05;;;;;;;;;;5057311;28;20101;-64
2022/10/31 03:59:43;;;;;;;52.30;34.33;;;;;;;;;;5071697;28;20094;-65
2022/10/31 04:02:14;;;;;;;51.22;33.67;;;;;;;;;;5075290;28;20024;-64
2022/10/31 04:04:41;;;;;;;49.72;33.08;;;;;;;;;;5075062;28;20105;-64
2022/10/31 04:07:07;;;;;;;47.10;31.88;;;;;;;;;;5074878;28;20479;-64
2022/10/31 04:09:35;;;;;;;50.55;32.17;;;;;;;;;;5045120;28;20034;-64
2022/10/31 04:12:02;;;;;;;49.47;32.53;;;;;;;;;;5036864;28;20025;-64
2022/10/31 04:14:30;;;;;;;50.97;32.63;;;;;;;;;;5036522;28;20112;-63
2022/10/31 04:16:56;;;;;;;50.23;33.83;;;;;;;;;;5037257;28;20396;-64
2022/10/31 04:19:22;;;;;;;49.40;33.00;;;;;;;;;;5037028;28;20300;-64
2022/10/31 04:21:48;;;;;;;45.97;33.30;;;;;;;;;;5054954;28;20017;-64
2022/10/31 04:24:14;;;;;;;50.25;32.22;;;;;;;;;;5054011;28;20466;-63
2022/10/31 04:26:40;;;;;;;48.28;33.28;;;;;;;;;;5050078;28;20040;-64
2022/10/31 04:29:06;;;;;;;49.45;33.25;;;;;;;;;;5074792;28;20036;-64
2022/10/31 04:31:32;;;;;;;48.35;31.02;;;;;;;;;;5074833;28;20025;-64
2022/10/31 04:33:58;;;;;;;50.20;32.20;;;;;;;;;;5056354;28;20404;-64
2022/10/31 04:36:24;;;;;;;48.13;32.35;;;;;;;;;;5074722;28;20429;-64
2022/10/31 04:38:50;;;;;;;56.92;31.77;;;;;;;;;;5074038;28;20178;-64
2022/10/31 04:41:16;;;;;;;44.03;30.15;;;;;;;;;;5056516;28;20027;-65
2022/10/31 04:43:42;;;;;;;45.70;31.77;;;;;;;;;;5069420;22;20041;-67
2022/10/31 04:46:07;;;;;;;45.70;30.55;;;;;;;;;;5072307;28;20036;-65
2022/10/31 04:48:33;;;;;;;47.88;33.47;;;;;;;;;;5072313;28;20103;-66
2022/10/31 04:51:00;;;;;;;47.25;33.75;;;;;;;;;;5072130;28;20477;-66
2022/10/31 04:53:26;;;;;;;47.47;32.38;;;;;;;;;;5069574;28;20028;-67
2022/10/31 04:55:52;;;;;;;48.17;31.38;;;;;;;;;;5052137;28;20048;-66
2022/10/31 04:58:18;;;;;;;45.83;30.15;;;;;;;;;;5034175;28;20139;-66
2022/10/31 05:00:44;;;;;;;50.03;33.53;;;;;;;;;;5033085;28;20029;-66
2022/10/31 05:03:10;;;;;;;43.97;31.02;;;;;;;;;;5051186;28;20028;-66
2022/10/31 05:05:36;;;;;;;44.88;32.10;;;;;;;;;;5051782;28;20380;-66
2022/10/31 05:08:02;;;;;;;50.60;32.85;;;;;;;;;;5052055;28;20024;-66
2022/10/31 05:10:29;;;;;;;52.58;33.25;;;;;;;;;;5051426;28;20033;-66
2022/10/31 05:12:56;;;;;;;50.33;32.40;;;;;;;;;;5051369;28;20051;-66
2022/10/31 05:15:23;;;;;;;49.80;32.72;;;;;;;;;;5051319;28;20068;-66
2022/10/31 05:17:50;;;;;;;48.53;32.65;;;;;;;;;;5051795;28;20429;-66
2022/10/31 05:20:17;;;;;;;48.53;32.78;;;;;;;;;;5051790;28;20101;-66
2022/10/31 05:22:44;;;;;;;50.38;32.97;;;;;;;;;;5047502;28;20021;-66
2022/10/31 05:25:10;;;;;;;49.75;32.58;;;;;;;;;;5034740;28;20090;-66
2022/10/31 05:27:39;;;;;;;55.85;34.20;;;;;;;;;;5051160;28;20517;-65
2022/10/31 05:30:05;;;;;;;46.10;32.75;;;;;;;;;;5051733;28;20025;-66
2022/10/31 05:32:36;;;;;;;46.47;31.45;;;;;;;;;;5033987;28;20087;-67
2022/10/31 05:35:02;;;;;;;50.05;33.08;;;;;;;;;;5050803;28;20378;-66
2022/10/31 05:37:28;;;;;;;49.03;33.15;;;;;;;;;;5051827;28;20060;-66
2022/10/31 05:39:54;;;;;;;48.78;34.88;;;;;;;;;;5013955;28;20060;-66
2022/10/31 05:42:20;;;;;;;52.65;32.80;;;;;;;;;;5031284;28;20371;-65
2022/10/31 05:44:46;;;;;;;49.42;32.38;;;;;;;;;;5030312;28;20044;-65
2022/10/31 05:47:12;;;;;;;46.47;33.22;;;;;;;;;;5031351;28;20028;-67
2022/10/31 05:49:38;;;;;;;54.72;34.67;;;;;;;;;;5030984;28;20095;-65
2022/10/31 05:52:04;;;;;;;47.05;32.97;;;;;;;;;;5031106;28;20026;-65
2022/10/31 05:54:30;;;;;;;52.80;35.10;;;;;;;;;;5030291;28;20072;-66
2022/10/31 05:56:56;;;;;;;51.78;34.67;;;;;;;;;;5050441;28;20112;-66
2022/10/31 05:59:22;;;;;;;51.45;34.15;;;;;;;;;;5050861;28;20021;-66
2022/10/31 06:01:48;;;;;;;50.38;33.70;;;;;;;;;;5050765;28;20048;-66
2022/10/31 06:04:14;;;;;;;51.45;32.03;;;;;;;;;;5032137;28;20021;-66
2022/10/31 06:06:40;;;;;;;46.50;33.78;;;;;;;;;;5050560;28;20104;-66
2022/10/31 06:09:06;;;;;;;50.25;32.88;;;;;;;;;;5050230;28;20020;-66
2022/10/31 06:11:32;;;;;;;48.65;34.47;;;;;;;;;;5050524;28;20040;-66
2022/10/31 06:13:58;;;;;;;51.80;34.40;;;;;;;;;;5049774;28;20075;-66
2022/10/31 06:16:24;;;;;;;49.60;34.03;;;;;;;;;;5032396;28;20024;-66
2022/10/31 06:18:49;;;;;;;52.08;34.45;;;;;;;;;;5050568;28;20102;-66
2022/10/31 06:21:15;;;;;;;54.55;34.45;;;;;;;;;;5032376;28;20048;-65
2022/10/31 06:23:41;;;;;;;47.65;32.40;;;;;;;;;;5049620;28;20025;-66
2022/10/31 06:26:07;;;;;;;49.28;34.45;;;;;;;;;;5050380;28;20021;-65
2022/10/31 06:28:33;;;;;;;48.80;33.58;;;;;;;;;;5050353;28;20033;-66
2022/10/31 06:30:59;;;;;;;47.88;32.28;;;;;;;;;;5032521;28;20454;-65
2022/10/31 06:33:25;;;;;;;46.97;33.45;;;;;;;;;;5049354;28;20120;-65
2022/10/31 06:35:51;;;;;;;50.50;33.85;;;;;;;;;;5032387;28;20116;-66
2022/10/31 06:38:17;;;;;;;54.88;35.28;;;;;;;;;;5050255;28;20489;-66
2022/10/31 06:40:43;;;;;;;51.40;35.58;;;;;;;;;;5048703;28;20056;-65
2022/10/31 06:43:11;;;;;;;50.22;35.22;;;;;;;;;;5031662;28;20072;-65
2022/10/31 06:45:37;;;;;;;47.55;33.55;;;;;;;;;;5029948;28;20029;-66
2022/10/31 06:48:03;;;;;;;47.90;34.03;;;;;;;;;;5016993;28;20452;-67
2022/10/31 06:50:29;;;;;;;50.03;33.80;;;;;;;;;;5050460;28;20055;-66
2022/10/31 06:52:59;;;;;;;48.30;32.75;;;;;;;;;;5050350;28;20029;-64
2022/10/31 06:55:27;;;;;;;42.33;30.05;;;;;;;;;;5026727;28;20025;-65
2022/10/31 06:57:53;;;;;;;46.17;31.10;;;;;;;;;;5012960;28;20030;-65
2022/10/31 07:00:19;;;;;;;44.20;29.67;;;;;;;;;;5030444;28;20018;-64
2022/10/31 07:03:06;;;;;;;40.83;31.38;;;;;;;;;;5038299;28;20048;-65
2022/10/31 07:05:32;;;;;;;42.35;31.63;;;;;;;;;;5069874;28;20020;-65
2022/10/31 07:07:59;;;;;;;42.35;30.35;;;;;;;;;;5070247;28;20036;-66
2022/10/31 07:10:26;;;;;;;43.33;31.20;;;;;;;;;;5061396;28;20029;-65
2022/10/31 07:13:00;;;;;;;41.05;30.48;;;;;;;;;;5031642;28;20059;-64
2022/10/31 07:15:27;;;;;;;41.47;30.55;;;;;;;;;;5047717;28;20029;-67
2022/10/31 07:17:53;;;;;;;40.25;30.50;;;;;;;;;;5050461;28;20385;-66
2022/10/31 07:20:19;;;;;;;52.45;31.13;;;;;;;;;;5050186;28;20021;-64
2022/10/31 07:22:46;;;;;;;38.30;29.52;;;;;;;;;;5049880;28;20031;-66
2022/10/31 07:25:12;;;;;;;38.80;28.85;;;;;;;;;;5049252;28;20044;-64
2022/10/31 07:27:42;;;;;;;40.83;30.05;;;;;;;;;;5049611;28;20036;-64
2022/10/31 07:30:09;;;;;;;37.67;28.65;;;;;;;;;;5049644;28;20060;-65
2022/10/31 07:32:41;;;;;;;38.78;28.00;;;;;;;;;;5049719;28;20040;-65
2022/10/31 07:35:11;;;;;;;37.15;27.95;;;;;;;;;;5048872;28;20035;-65
2022/10/31 07:37:37;;;;;;;39.70;28.67;;;;;;;;;;5049605;28;20040;-65
2022/10/31 07:40:04;;;;;;;38.80;28.98;;;;;;;;;;5049742;28;20017;-65
2022/10/31 07:42:34;;;;;;;36.42;28.27;;;;;;;;;;5048784;28;20489;-66
2022/10/31 07:45:00;;;;;;;35.50;26.42;;;;;;;;;;5032309;28;20029;-66
2022/10/31 07:47:27;;;;;;;37.53;27.30;;;;;;;;;;5053385;28;20028;-67
2022/10/31 07:49:53;;;;;;;39.63;28.33;;;;;;;;;;5053284;28;20104;-65
2022/10/31 07:52:19;;;;;;;38.15;27.20;;;;;;;;;;5052898;28;20037;-66
2022/10/31 07:54:45;;;;;;;35.72;25.60;;;;;;;;;;5034547;28;20035;-64
2022/10/31 07:57:11;;;;;;;33.00;24.42;;;;;;;;;;5053033;28;20108;-66
2022/10/31 07:59:37;;;;;;;33.75;24.30;;;;;;;;;;5052856;28;20425;-65
2022/10/31 08:02:03;;;;;;;33.72;25.10;;;;;;;;;;5052730;28;20108;-64
2022/10/31 08:04:29;;;;;;;32.42;24.85;;;;;;;;;;5052000;28;20057;-61
2022/10/31 08:06:55;;;;;;;32.22;24.67;;;;;;;;;;5052891;28;20033;-65
2022/10/31 08:09:21;;;;;;;32.05;23.63;;;;;;;;;;5052993;28;20029;-64
2022/10/31 08:11:47;;;;;;;32.13;24.10;;;;;;;;;;5026505;28;20103;-65
2022/10/31 08:14:13;;;;;;;33.75;23.08;;;;;;;;;;5039732;28;20033;-60
2022/10/31 08:16:39;;;;;;;32.80;24.25;;;;;;;;;;5033766;28;20119;-60
2022/10/31 08:19:05;;;;;;;34.08;24.30;;;;;;;;;;5036706;28;20029;-59
2022/10/31 08:21:31;;;;;;;28.80;21.90;;;;;;;;;;5044179;28;20132;-58
2022/10/31 08:23:57;;;;;;;32.78;23.63;;;;;;;;;;5035095;28;20501;-56
2022/10/31 08:26:23;;;;;;;34.25;25.08;;;;;;;;;;5052918;28;20109;-58
2022/10/31 08:28:49;;;;;;;34.72;23.85;;;;;;;;;;5052837;28;20067;-59
2022/10/31 08:31:15;;;;;;;33.50;23.77;;;;;;;;;;5052809;28;20479;-60
2022/10/31 08:33:41;;;;;;;35.75;24.48;;;;;;;;;;5045647;28;20105;-60
2022/10/31 08:36:07;;;;;;;30.80;23.10;;;;;;;;;;5041651;28;20024;-61
2022/10/31 08:38:33;;;;;;;36.72;25.73;;;;;;;;;;5035533;28;20030;-60
2022/10/31 08:40:59;;;;;;;34.95;24.40;;;;;;;;;;5033121;28;20401;-61
2022/10/31 08:43:25;;;;;;;33.13;23.73;;;;;;;;;;5032309;28;20029;-60
2022/10/31 08:45:54;;;;;;;33.80;23.25;;;;;;;;;;5032824;28;20053;-61
2022/10/31 08:48:20;;;;;;;35.38;25.23;;;;;;;;;;5039101;28;20400;-58
2022/10/31 08:50:46;;;;;;;34.53;23.50;;;;;;;;;;5053120;28;20437;-60
2022/10/31 08:53:12;;;;;;;34.95;24.63;;;;;;;;;;5046719;28;20059;-60
2022/10/31 08:55:39;;;;;;;31.52;24.63;;;;;;;;;;5051362;28;20098;-60
2022/10/31 08:58:06;;;;;;;36.20;24.95;;;;;;;;;;5034476;28;20028;-58
2022/10/31 09:00:33;;;;;;;33.67;24.60;;;;;;;;;;5037861;28;20018;-60
2022/10/31 09:03:00;;;;;;;36.35;25.77;;;;;;;;;;5033307;28;20025;-61
2022/10/31 09:05:26;;;;;;;37.88;26.25;;;;;;;;;;5014050;28;20033;-60
2022/10/31 09:07:55;;;;;;;35.05;28.15;;;;;;;;;;5032528;28;20034;-59
2022/10/31 09:10:22;;;;;;;36.25;27.40;;;;;;;;;;5046374;28;20341;-59
2022/10/31 09:12:48;;;;;;;35.60;27.30;;;;;;;;;;5046183;28;20036;-60
2022/10/31 09:15:14;;;;;;;39.85;26.67;;;;;;;;;;5040223;28;20028;-58
2022/10/31 09:17:40;;;;;;;40.85;26.35;;;;;;;;;;5035169;28;20394;-64
2022/10/31 09:20:06;;;;;;;34.60;24.70;;;;;;;;;;5051749;28;20028;-67
2022/10/31 09:22:32;;;;;;;41.63;27.60;;;;;;;;;;5051542;28;20137;-67
2022/10/31 09:24:58;;;;;;;36.63;25.45;;;;;;;;;;5050421;28;20489;-67
2022/10/31 09:27:24;;;;;;;40.35;26.75;;;;;;;;;;5051504;28;20102;-67
2022/10/31 09:29:50;;;;;;;38.30;25.48;;;;;;;;;;5031835;28;20025;-69
2022/10/31 09:32:16;;;;;;;36.92;26.38;;;;;;;;;;5042554;28;20025;-67
2022/10/31 09:34:42;;;;;;;38.70;26.70;;;;;;;;;;5040144;28;20035;-67
2022/10/31 09:37:08;;;;;;;34.53;24.40;;;;;;;;;;5042531;28;20127;-67
2022/10/31 09:39:34;;;;;;;36.40;24.60;;;;;;;;;;5038104;28;20036;-67
2022/10/31 09:42:19;;;;;;;40.50;25.38;;;;;;;;;;5031428;28;20029;-67
2022/10/31 09:44:51;;;;;;;38.97;23.67;;;;;;;;;;5035052;28;20449;-67
2022/10/31 09:47:20;;;;;;;33.63;25.33;;;;;;;;;;5025995;28;20429;-67
2022/10/31 09:49:46;;;;;;;39.95;26.40;;;;;;;;;;5041511;28;20060;-66
2022/10/31 09:52:17;;;;;;;36.75;24.75;;;;;;;;;;5025479;28;20048;-66
2022/10/31 09:54:53;;;;;;;43.50;25.05;;;;;;;;;;5050033;28;20025;-68
2022/10/31 09:57:25;;;;;;;36.97;24.40;;;;;;;;;;5050841;28;20418;-67
2022/10/31 09:59:51;;;;;;;35.85;25.33;;;;;;;;;;5050724;28;20047;-68
2022/10/31 10:02:20;;;;;;;37.30;26.20;;;;;;;;;;5050880;28;20100;-67
2022/10/31 10:04:58;;;;;;;37.67;26.25;;;;;;;;;;5051648;28;20092;-68
2022/10/31 10:07:43;;;;;;;36.95;25.20;;;;;;;;;;5035219;28;20037;-67
2022/10/31 10:10:15;;;;;;;37.97;23.63;;;;;;;;;;5050760;28;20040;-68
2022/10/31 10:12:47;;;;;;;31.13;23.95;;;;;;;;;;5021327;28;20056;-68
2022/10/31 10:15:36;;;;;;;33.13;24.00;;;;;;;;;;5029606;28;20049;-68
2022/10/31 10:18:08;;;;;;;37.45;24.92;;;;;;;;;;5048951;28;20028;-68
2022/10/31 10:20:53;;;;;;;33.45;23.45;;;;;;;;;;5050487;28;20017;-68
2022/10/31 10:23:31;;;;;;;32.85;24.02;;;;;;;;;;5051538;28;20385;-65
2022/10/31 10:26:03;;;;;;;35.08;27.10;;;;;;;;;;5070263;28;20388;-65
2022/10/31 10:28:39;;;;;;;39.20;26.80;;;;;;;;;;5070820;28;20028;-66
2022/10/31 10:31:12;;;;;;;37.88;25.95;;;;;;;;;;5070323;28;20541;-65
2022/10/31 10:33:40;;;;;;;34.47;25.98;;;;;;;;;;5069309;28;20082;-66
2022/10/31 10:36:16;;;;;;;34.67;23.75;;;;;;;;;;5052013;28;20115;-64
2022/10/31 10:38:45;;;;;;;33.47;24.08;;;;;;;;;;5070254;28;20143;-65
2022/10/31 10:41:18;;;;;;;32.35;24.23;;;;;;;;;;5070410;28;20550;-64
2022/10/31 10:49:26;;;;;;;34.97;23.63;;;;;;;;;;5092210;28;20074;-59
2022/10/31 10:51:58;;;;;;;33.47;25.02;;;;;;;;;;5091985;28;20495;-60
2022/10/31 10:54:43;;;;;;;31.85;24.23;;;;;;;;;;5090607;28;20092;-55
2022/10/31 10:57:12;;;;;;;35.97;25.08;;;;;;;;;;5091231;28;20065;-61
2022/10/31 10:59:38;;;;;;;34.63;25.15;;;;;;;;;;5089579;28;20020;-59
2022/10/31 11:02:14;;;;;;;36.92;25.13;;;;;;;;;;5090756;28;20076;-57
2022/10/31 11:04:41;;;;;;;36.83;26.00;;;;;;;;;;5090568;28;20031;-58
2022/10/31 11:07:08;;;;;;;34.25;25.10;;;;;;;;;;5091699;28;20051;-58
2022/10/31 11:09:35;;;;;;;35.58;26.13;;;;;;;;;;5092071;28;20030;-56
2022/10/31 11:12:07;;;;;;;35.00;26.83;;;;;;;;;;5091522;28;20035;-59
2022/10/31 11:14:36;;;;;;;36.78;24.77;;;;;;;;;;5090915;28;20024;-57
2022/10/31 11:17:11;;;;;;;34.25;25.77;;;;;;;;;;5091343;28;20036;-60
2022/10/31 11:19:37;;;;;;;32.22;24.80;;;;;;;;;;5092222;28;20028;-60
2022/10/31 11:22:15;;;;;;;31.13;24.02;;;;;;;;;;5083003;28;20080;-59
2022/10/31 11:24:41;;;;;;;31.42;25.25;;;;;;;;;;5093730;28;20078;-61
2022/10/31 11:27:26;;;;;;;37.40;24.70;;;;;;;;;;5089568;28;20016;-62
2022/10/31 11:29:52;;;;;;;36.85;27.98;;;;;;;;;;5095099;28;20386;-65
2022/10/31 11:32:18;;;;;;;42.92;35.38;;;;;;;;;;5094128;28;20027;-63
2022/10/31 11:34:45;;;;;;;34.17;26.40;;;;;;;;;;5093515;28;20020;-62
2022/10/31 11:37:17;;;;;;;33.08;24.60;;;;;;;;;;5080087;28;20070;-62
2022/10/31 11:39:44;;;;;;;30.65;23.85;;;;;;;;;;5074684;28;20021;-62
2022/10/31 11:42:11;;;;;;;31.23;24.00;;;;;;;;;;5055425;28;20032;-64
2022/10/31 11:44:37;;;;;;;32.35;25.20;;;;;;;;;;5055974;28;20397;-62
2022/10/31 11:47:05;;;;;;;32.33;27.52;;;;;;;;;;5060701;28;20043;-64
2022/10/31 11:49:39;;;;;;;30.38;25.40;;;;;;;;;;5074841;28;20027;-63
2022/10/31 11:52:15;;;;;;;32.50;25.95;;;;;;;;;;5057054;28;20030;-63
2022/10/31 11:55:00;;;;;;;29.98;23.42;;;;;;;;;;5074161;28;20029;-63
2022/10/31 11:57:28;;;;;;;30.40;25.83;;;;;;;;;;5074639;28;20029;-61
2022/10/31 11:59:55;;;;;;;31.00;23.40;;;;;;;;;;5074656;28;20021;-63
2022/10/31 12:02:22;;;;;;;29.52;23.27;;;;;;;;;;5074832;28;20440;-63
2022/10/31 12:05:11;;;;;;;34.45;26.67;;;;;;;;;;5073900;28;20100;-61
2022/10/31 12:07:37;;;;;;;29.35;22.92;;;;;;;;;;5066404;28;20045;-63
2022/10/31 12:10:10;;;;;;;31.98;24.42;;;;;;;;;;5074531;28;20028;-63
2022/10/31 12:12:40;;;;;;;34.08;22.92;;;;;;;;;;5074581;28;20507;-62
2022/10/31 12:15:25;;;;;;;32.80;22.70;;;;;;;;;;5074118;28;20039;-61
2022/10/31 12:18:20;;;;;;;32.20;23.65;;;;;;;;;;5093940;28;20044;-61
2022/10/31 12:20:49;;;;;;;28.23;22.50;;;;;;;;;;5081224;28;20127;-63
2022/10/31 12:23:21;;;;;;;30.80;21.85;;;;;;;;;;5093796;28;20115;-62
2022/10/31 12:26:11;;;;;;;37.70;23.35;;;;;;;;;;5094026;28;20020;-61
2022/10/31 12:28:40;;;;;;;31.23;24.08;;;;;;;;;;5094410;28;20100;-62
2022/10/31 12:31:15;;;;;;;32.13;22.70;;;;;;;;;;5094322;28;20046;-62
2022/10/31 12:34:00;;;;;;;34.63;24.42;;;;;;;;;;5091895;28;20043;-61
2022/10/31 12:36:58;;;;;;;34.17;23.45;;;;;;;;;;5093952;28;20115;-62
2022/10/31 12:39:24;;;;;;;34.42;24.55;;;;;;;;;;5071006;28;20040;-62
2022/10/31 12:42:09;;;;;;;34.75;22.88;;;;;;;;;;5092342;28;20376;-61
2022/10/31 12:44:44;;;;;;;31.55;23.33;;;;;;;;;;5092807;28;20020;-62
2022/10/31 12:47:28;;;;;;;32.33;23.98;;;;;;;;;;5092842;28;20546;-63
2022/10/31 12:49:55;;;;;;;34.33;25.25;;;;;;;;;;5073378;28;20032;-62
2022/10/31 12:52:21;;;;;;;32.35;23.60;;;;;;;;;;5072541;28;20029;-62
2022/10/31 12:55:07;;;;;;;37.88;25.25;;;;;;;;;;5072884;28;20028;-63
2022/10/31 12:57:36;;;;;;;36.00;23.90;;;;;;;;;;5087956;28;20419;-62
2022/10/31 13:00:20;;;;;;;37.28;24.80;;;;;;;;;;5074054;28;20024;-62
2022/10/31 13:02:49;;;;;;;35.40;24.88;;;;;;;;;;5055362;28;20028;-63
2022/10/31 13:05:28;;;;;;;41.97;25.92;;;;;;;;;;5072888;28;20030;-62
2022/10/31 13:08:14;;;;;;;36.92;24.05;;;;;;;;;;5055305;28;20070;-63
2022/10/31 13:10:46;;;;;;;35.40;24.85;;;;;;;;;;5073159;28;20385;-63
2022/10/31 13:13:15;;;;;;;42.97;32.90;;;;;;;;;;5054960;28;20066;-63
2022/10/31 13:15:58;;;;;;;35.10;26.80;;;;;;;;;;5064440;28;20088;-61
2022/10/31 13:18:53;;;;;;;40.17;24.63;;;;;;;;;;5092963;28;20472;-61
2022/10/31 13:21:25;;;;;;;38.53;27.13;;;;;;;;;;5035007;28;20588;-60
2022/10/31 13:23:51;;;;;;;36.47;25.23;;;;;;;;;;5072270;28;20503;-61
2022/10/31 13:26:41;;;;;;;33.42;24.83;;;;;;;;;;5072845;28;20381;-61
2022/10/31 13:29:20;;;;;;;40.95;25.70;;;;;;;;;;5064645;28;20123;-59
2022/10/31 13:31:46;;;;;;;37.67;25.67;;;;;;;;;;5072986;28;20029;-60
2022/10/31 13:34:30;;;;;;;40.65;27.55;;;;;;;;;;5054103;28;20079;-59
2022/10/31 13:37:15;;;;;;;41.58;28.25;;;;;;;;;;5072401;28;20056;-57
2022/10/31 13:40:00;;;;;;;40.20;26.42;;;;;;;;;;5054430;28;20047;-61
2022/10/31 13:42:51;;;;;;;39.08;26.92;;;;;;;;;;5071535;28;20497;-60
2022/10/31 13:45:21;;;;;;;40.25;26.95;;;;;;;;;;5072425;28;20137;-61
2022/10/31 13:48:06;;;;;;;40.25;28.30;;;;;;;;;;5092271;28;20397;-58
2022/10/31 13:50:33;;;;;;;39.22;27.77;;;;;;;;;;5094277;28;20051;-62
2022/10/31 13:53:11;;;;;;;41.40;28.33;;;;;;;;;;5078077;28;20024;-62
2022/10/31 13:55:37;;;;;;;50.58;28.55;;;;;;;;;;5094710;28;20020;-57
2022/10/31 13:58:24;;;;;;;43.88;28.23;;;;;;;;;;5092907;28;20372;-61
2022/10/31 14:01:02;;;;;;;40.88;28.98;;;;;;;;;;5092672;28;20116;-60
2022/10/31 14:03:28;;;;;;;38.05;26.42;;;;;;;;;;5092031;28;20095;-60
2022/10/31 14:05:55;;;;;;;43.85;27.55;;;;;;;;;;5092234;28;20095;-60
2022/10/31 14:08:23;;;;;;;38.85;28.17;;;;;;;;;;5092297;28;20043;-60
2022/10/31 14:10:49;;;;;;;;;;;;;;;;;;5092592;28;20031;-56
2022/10/31 14:13:23;;;;;;;42.85;27.70;;;;;;;;;;5091879;28;19904;-58
2022/10/31 14:15:54;;;;;;;37.95;26.25;;;;;;;;;;5091155;28;20424;-61
2022/10/31 14:18:46;;;;;;;40.75;28.85;;;;;;;;;;5091423;28;20063;-59
2022/10/31 14:21:24;;;;;;;42.47;27.98;;;;;;;;;;5088241;28;20106;-55
2022/10/31 14:23:53;;;;;;;43.55;28.35;;;;;;;;;;5091374;28;20460;-60
2022/10/31 14:26:19;;;;;;;39.03;28.67;;;;;;;;;;5092160;28;20028;-59
2022/10/31 14:28:46;;;;;;;40.97;28.60;;;;;;;;;;5092043;28;20084;-59
2022/10/31 14:31:31;;;;;;;43.47;27.42;;;;;;;;;;5091662;28;20028;-59
2022/10/31 14:33:59;;;;;;;46.15;29.17;;;;;;;;;;5090793;28;20062;-59
2022/10/31 14:36:43;;;;;;;41.85;28.67;;;;;;;;;;5091887;28;20031;-59
2022/10/31 14:39:23;;;;;;;41.10;29.27;;;;;;;;;;5091793;28;20349;-60